createdAt,value
2022-11-03T00:04:11.452Z,25.3
2022-11-03T00:09:18.268Z,25.3
2022-11-03T00:14:54.564Z,25.3
2022-11-03T00:20:31.868Z,25.3
2022-11-03T00:26:08.539Z,25.3
2022-11-03T00:31:45.433Z,25.3
2022-11-03T00:37:23.667Z,25.3
2022-11-03T00:43:01.773Z,25.3
2022-11-03T00:48:28.568Z,25.3
2022-11-03T00:53:50.905Z,25.3
2022-11-03T00:59:16.964Z,25.3
2022-11-03T01:04:40.076Z,25.3
2022-11-03T01:10:05.676Z,25.3
2022-11-03T01:15:27.308Z,25.4
2022-11-03T01:21:04.564Z,25.3
2022-11-03T01:26:42.160Z,25.3
2022-11-03T01:32:19.842Z,25.4
2022-11-03T01:37:55.971Z,25.4
2022-11-03T01:43:33.794Z,25.4
2022-11-03T01:48:40.572Z,25.4
2022-11-03T01:54:01.811Z,25.4
2022-11-03T01:59:39.389Z,25.4
2022-11-03T02:05:18.532Z,25.4
2022-11-03T02:10:54.176Z,25.4
2022-11-03T02:16:31.039Z,25.4
2022-11-03T02:22:09.337Z,25.4
2022-11-03T02:27:45.278Z,25.4
2022-11-03T02:33:24.508Z,25.4
2022-11-03T02:38:45.770Z,25.4
2022-11-03T02:43:50.504Z,25.4
2022-11-03T02:48:58.758Z,25.4
2022-11-03T02:54:36.012Z,25.4
2022-11-03T03:00:12.948Z,25.4
2022-11-03T03:05:36.123Z,25.4
2022-11-03T03:10:26.440Z,25.4
2022-11-03T03:16:02.714Z,25.4
2022-11-03T03:21:39.895Z,25.4
2022-11-03T03:27:22.634Z,25.4
2022-11-03T03:32:59.096Z,25.4
2022-11-03T03:38:39.360Z,25.4
2022-11-03T03:44:03.050Z,25.4
2022-11-03T03:49:24.071Z,25.4
2022-11-03T03:54:30.098Z,25.4
2022-11-03T03:59:56.669Z,25.5
2022-11-03T04:05:18.954Z,25.5
2022-11-03T04:10:56.863Z,25.4
2022-11-03T04:16:18.446Z,25.4
2022-11-03T04:21:39.787Z,25.5
2022-11-03T04:27:17.052Z,25.5
2022-11-03T04:32:54.718Z,25.5
2022-11-03T04:38:37.428Z,25.5
2022-11-03T04:44:18.347Z,25.5
2022-11-03T04:49:39.928Z,25.5
2022-11-03T04:55:01.952Z,25.6
2022-11-03T05:00:23.968Z,25.4
2022-11-03T05:06:07.406Z,25.3
2022-11-03T05:11:34.105Z,25.3
2022-11-03T05:17:11.566Z,25.4
2022-11-03T05:22:49.059Z,25.4
2022-11-03T05:28:26.279Z,25.4
2022-11-03T05:34:04.109Z,25.4
2022-11-03T05:39:41.713Z,25.4
2022-11-03T05:45:24.246Z,25.5
2022-11-03T05:50:49.037Z,25.5
2022-11-03T05:56:15.254Z,25.5
2022-11-03T06:01:38.682Z,25.5
2022-11-03T06:07:05.368Z,25.5
2022-11-03T06:12:27.856Z,25.5
2022-11-03T06:18:05.532Z,25.5
2022-11-03T06:23:42.938Z,25.5
2022-11-03T06:29:20.690Z,25.5
2022-11-03T06:35:03.241Z,25.5
2022-11-03T06:40:40.775Z,32.9
2022-11-03T06:46:18.217Z,32.9
2022-11-03T06:51:55.229Z,29.6
2022-11-03T06:57:32.766Z,33
2022-11-03T07:03:44.306Z,33.9
2022-11-03T07:09:23.411Z,34.4
2022-11-03T07:15:02.739Z,35.1
2022-11-03T07:20:44.522Z,35.5
2022-11-03T07:26:21.576Z,35.8
2022-11-03T07:32:05.465Z,36.4
2022-11-03T07:38:18.409Z,36.9
2022-11-03T07:44:00.533Z,37
2022-11-03T07:49:43.401Z,37.5
2022-11-03T07:55:21.597Z,37.8
2022-11-03T08:01:00.265Z,38.8
2022-11-03T08:06:42.121Z,39.6
2022-11-03T08:11:49.908Z,40.4
2022-11-03T08:17:27.477Z,41.2
2022-11-03T08:23:26.220Z,41.8
2022-11-03T08:29:08.833Z,42.6
2022-11-03T08:34:51.993Z,43.3
2022-11-03T08:40:33.815Z,44
2022-11-03T08:46:26.455Z,41.9
2022-11-03T08:52:04.421Z,37.5
2022-11-03T08:57:45.123Z,37.9
2022-11-03T09:03:25.610Z,38.3
2022-11-03T09:11:02.457Z,38.9
2022-11-03T09:16:08.612Z,40.4
2022-11-03T09:21:32.015Z,41.6
2022-11-03T09:27:15.847Z,42.7
2022-11-03T09:33:12.330Z,43.8
2022-11-03T09:38:34.112Z,44.6
2022-11-03T09:44:48.224Z,45.4
2022-11-03T09:50:26.107Z,46.2
2022-11-03T09:55:48.283Z,46.8
2022-11-03T10:01:10.626Z,47.3
2022-11-03T10:06:50.854Z,47.7
2022-11-03T10:12:34.880Z,48.2
2022-11-03T10:18:16.190Z,48.5
2022-11-03T10:23:54.324Z,48.8
2022-11-03T10:29:38.805Z,49.2
2022-11-03T10:35:42.059Z,49.6
2022-11-03T10:41:35.716Z,50
2022-11-03T10:47:42.607Z,50.4
2022-11-03T10:53:07.936Z,50.8
2022-11-03T10:58:49.643Z,51.1
2022-11-03T11:04:29.654Z,51.4
2022-11-03T11:09:52.777Z,51.8
2022-11-03T11:15:30.228Z,52.1
2022-11-03T11:20:52.179Z,52.3
2022-11-03T11:26:30.356Z,51.9
2022-11-03T11:32:12.441Z,51.1
2022-11-03T11:37:54.272Z,51.5
2022-11-03T11:54:36.860Z,52.8
2022-11-03T12:00:15.214Z,53.1
2022-11-03T12:05:38.693Z,53.3
2022-11-03T12:11:16.794Z,53.4
2022-11-03T12:17:00.641Z,53.6
2022-11-03T12:22:29.218Z,53.8
2022-11-03T12:27:52.008Z,53.8
2022-11-03T12:33:55.488Z,53.9
2022-11-03T12:39:33.200Z,53.9
2022-11-03T12:45:00.310Z,53.9
2022-11-03T12:50:38.085Z,53.9
2022-11-03T12:56:22.666Z,53.5
2022-11-03T13:01:47.573Z,53.3
2022-11-03T13:07:30.438Z,53.2
2022-11-03T13:13:10.560Z,53
2022-11-03T13:19:24.348Z,52.8
2022-11-03T13:25:02.151Z,52.6
2022-11-03T13:30:42.130Z,52.3
2022-11-03T13:36:20.559Z,52.1
2022-11-03T13:42:33.291Z,51.8
2022-11-03T13:50:13.928Z,51.5
2022-11-03T13:59:45.627Z,50.9
2022-11-03T14:07:15.920Z,50.1
2022-11-03T14:12:55.373Z,49.7
2022-11-03T14:18:33.282Z,49.2
2022-11-03T14:24:22.895Z,48.5
2022-11-03T14:30:39.192Z,47.9
2022-11-03T14:36:23.135Z,47.3
2022-11-03T14:42:01.530Z,46.8
2022-11-03T14:47:40.942Z,45.8
2022-11-03T14:53:17.961Z,42.7
2022-11-03T14:58:56.472Z,40.9
2022-11-03T15:04:41.687Z,39.6
2022-11-03T15:10:19.805Z,38.7
2022-11-03T15:16:01.638Z,38
2022-11-03T15:21:43.968Z,37.4
2022-11-03T15:29:27.171Z,36.8
2022-11-03T15:34:59.487Z,36.4
2022-11-03T15:40:06.894Z,36.1
2022-11-03T15:45:44.082Z,35.8
2022-11-03T15:51:25.725Z,35.5
2022-11-03T15:57:11.181Z,35.2
2022-11-03T16:02:58.454Z,35
2022-11-03T16:08:30.660Z,34.8
2022-11-03T16:14:00.891Z,32.6
2022-11-03T16:19:40.726Z,30.8
2022-11-03T16:25:10.345Z,29.9
2022-11-03T16:30:21.992Z,29.3
2022-11-03T16:35:43.381Z,28.9
2022-11-03T16:41:25.470Z,28.6
2022-11-03T16:47:02.607Z,28.3
2022-11-03T16:52:48.326Z,28
2022-11-03T16:58:33.332Z,27.9
2022-11-03T17:03:57.684Z,27.8
2022-11-03T17:09:53.425Z,27.6
2022-11-03T17:15:35.832Z,27.6
2022-11-03T17:21:13.581Z,27.5
2022-11-03T17:26:55.411Z,27.4
2022-11-03T17:32:17.896Z,27.4
2022-11-03T17:37:56.269Z,27.4
2022-11-03T17:43:33.983Z,27.4
2022-11-03T17:49:11.999Z,27.4
2022-11-03T17:54:57.635Z,27.3
2022-11-03T18:00:44.506Z,27.1
2022-11-03T18:06:11.159Z,26.9
2022-11-03T18:11:33.826Z,26.8
2022-11-03T18:17:14.585Z,26.8
2022-11-03T18:22:36.612Z,26.8
2022-11-03T18:28:14.836Z,26.8
2022-11-03T18:33:58.870Z,26.7
2022-11-03T18:39:36.616Z,26.7
2022-11-03T18:45:18.929Z,26.8
2022-11-03T18:50:56.493Z,26.8
2022-11-03T18:56:18.973Z,26.8
2022-11-03T19:02:00.883Z,26.8
2022-11-03T19:07:26.524Z,26.8
2022-11-03T19:12:54.353Z,26.8
2022-11-03T19:19:01.303Z,26.6
2022-11-03T19:24:40.887Z,26.4
2022-11-03T19:29:46.824Z,26.3
2022-11-03T19:35:12.813Z,26.3
2022-11-03T19:40:41.185Z,26.3
2022-11-03T19:46:25.692Z,26.3
2022-11-03T19:52:17.118Z,26.1
2022-11-03T19:58:01.067Z,25.8
2022-11-03T20:03:40.094Z,25.4
2022-11-03T20:09:10.875Z,25.3
2022-11-03T20:14:50.334Z,25.3
2022-11-03T20:20:43.924Z,25.3
2022-11-03T20:25:50.734Z,25.3
2022-11-03T20:31:14.027Z,25.3
2022-11-03T20:36:20.046Z,25.3
2022-11-03T20:41:27.055Z,25.3
2022-11-03T20:46:18.856Z,25.3
2022-11-03T20:51:45.319Z,25.3
2022-11-03T20:57:09.204Z,25.4
2022-11-03T21:02:32.450Z,25.4
2022-11-03T21:08:00.060Z,25.3
2022-11-03T21:13:43.690Z,25
2022-11-03T21:19:27.064Z,24.9
2022-11-03T21:25:37.917Z,24.8
2022-11-03T21:31:53.729Z,24.9
2022-11-03T21:37:14.856Z,24.8
2022-11-03T21:42:37.608Z,24.8
2022-11-03T21:47:59.572Z,24.8
2022-11-03T21:53:22.828Z,24.9
2022-11-03T21:59:06.061Z,24.9
2022-11-03T22:04:29.753Z,24.9
2022-11-03T22:10:10.146Z,24.9
2022-11-03T22:15:32.607Z,24.9
2022-11-03T22:21:10.398Z,24.9
2022-11-03T22:26:31.711Z,24.9
2022-11-03T22:31:54.891Z,24.9
2022-11-03T22:42:55.941Z,24.9
2022-11-03T22:48:20.533Z,24.9
2022-11-03T22:53:43.238Z,24.9
2022-11-03T22:58:48.768Z,24.9
2022-11-03T23:03:57.252Z,24.9
2022-11-03T23:09:26.393Z,24.9
2022-11-03T23:14:33.394Z,24.9
2022-11-03T23:19:54.762Z,24.9
2022-11-03T23:25:18.681Z,24.9
2022-11-03T23:30:39.408Z,24.9
2022-11-03T23:36:02.103Z,24.9
2022-11-03T23:41:27.478Z,24.9
2022-11-03T23:46:48.507Z,24.9
2022-11-03T23:51:54.649Z,24.9
2022-11-03T23:57:16.316Z,24.9
